createdAt,value
2018-12-03T00:00:41.219Z,47.49
2018-12-03T00:01:41.427Z,47.48
2018-12-03T00:02:41.360Z,47.45
2018-12-03T00:03:41.668Z,47.51
2018-12-03T00:04:41.508Z,47.47
2018-12-03T00:05:41.677Z,47.53
2018-12-03T00:06:41.673Z,47.51
2018-12-03T00:07:41.233Z,47.5
2018-12-03T00:08:41.443Z,47.5
2018-12-03T00:09:41.790Z,47.52
2018-12-03T00:10:41.425Z,47.49
2018-12-03T00:11:41.198Z,47.49
2018-12-03T00:12:41.403Z,47.45
2018-12-03T00:13:41.495Z,47.5
2018-12-03T00:14:41.134Z,47.48
2018-12-03T00:15:41.402Z,47.48
2018-12-03T00:16:41.361Z,47.49
2018-12-03T00:17:41.777Z,47.47
2018-12-03T00:18:41.525Z,47.51
2018-12-03T00:19:41.416Z,47.47
2018-12-03T00:20:41.212Z,47.5
2018-12-03T00:21:41.285Z,47.48
2018-12-03T00:22:41.121Z,47.52
2018-12-03T00:23:41.622Z,47.5
2018-12-03T00:24:41.340Z,47.51
2018-12-03T00:25:41.190Z,47.5
2018-12-03T00:26:41.356Z,47.52
2018-12-03T00:27:41.213Z,47.49
2018-12-03T00:28:41.365Z,47.48
2018-12-03T00:29:41.451Z,47.5
2018-12-03T00:30:41.349Z,47.48
2018-12-03T00:31:41.302Z,47.52
2018-12-03T00:32:41.242Z,47.51
2018-12-03T00:33:41.626Z,47.53
2018-12-03T00:34:41.169Z,47.52
2018-12-03T00:35:41.604Z,47.51
2018-12-03T00:36:42.006Z,47.51
2018-12-03T00:37:41.910Z,47.5
2018-12-03T00:38:42.273Z,47.51
2018-12-03T00:39:41.345Z,47.5
2018-12-03T00:40:41.356Z,47.51
2018-12-03T00:41:41.238Z,47.52
2018-12-03T00:42:41.428Z,47.52
2018-12-03T00:43:41.168Z,47.5
2018-12-03T00:44:41.311Z,47.5
2018-12-03T00:45:41.351Z,47.52
2018-12-03T00:46:41.503Z,47.49
2018-12-03T00:47:41.783Z,47.54
2018-12-03T00:48:41.270Z,47.52
2018-12-03T00:49:41.306Z,47.52
2018-12-03T00:50:41.181Z,47.53
2018-12-03T00:51:41.191Z,47.54
2018-12-03T00:52:41.377Z,47.56
2018-12-03T00:53:41.242Z,47.52
2018-12-03T00:54:41.350Z,47.57
2018-12-03T00:55:41.321Z,47.54
2018-12-03T00:56:41.667Z,47.54
2018-12-03T00:57:41.448Z,47.54
2018-12-03T00:58:41.673Z,47.54
2018-12-03T00:59:41.333Z,47.55
2018-12-03T01:00:41.232Z,47.54
2018-12-03T01:01:41.761Z,47.54
2018-12-03T01:02:41.642Z,47.55
2018-12-03T01:03:41.592Z,47.54
2018-12-03T01:04:41.140Z,47.54
2018-12-03T01:05:41.690Z,47.58
2018-12-03T01:06:41.522Z,47.55
2018-12-03T01:07:41.219Z,47.58
2018-12-03T01:08:41.874Z,47.58
2018-12-03T01:09:41.959Z,47.58
2018-12-03T01:10:41.325Z,47.56
2018-12-03T01:11:41.350Z,47.65
2018-12-03T01:12:41.704Z,47.58
2018-12-03T01:13:41.678Z,47.53
2018-12-03T01:14:41.145Z,47.57
2018-12-03T01:15:41.439Z,47.57
2018-12-03T01:16:41.281Z,47.58
2018-12-03T01:17:41.336Z,47.58
2018-12-03T01:18:41.319Z,47.59
2018-12-03T01:19:41.318Z,47.58
2018-12-03T01:20:41.265Z,47.59
2018-12-03T01:21:41.303Z,47.59
2018-12-03T01:22:41.156Z,47.58
2018-12-03T01:23:41.111Z,47.61
2018-12-03T01:24:41.347Z,47.58
2018-12-03T01:25:41.212Z,47.59
2018-12-03T01:26:41.380Z,47.6
2018-12-03T01:27:41.239Z,47.58
2018-12-03T01:28:41.782Z,47.56
2018-12-03T01:29:41.135Z,47.6
2018-12-03T01:30:41.313Z,47.6
2018-12-03T01:31:41.460Z,47.58
2018-12-03T01:32:41.246Z,47.55
2018-12-03T01:33:41.878Z,47.6
2018-12-03T01:34:41.241Z,47.63
2018-12-03T01:35:41.272Z,47.57
2018-12-03T01:36:41.152Z,47.58
2018-12-03T01:37:41.394Z,47.61
2018-12-03T01:38:41.654Z,47.61
2018-12-03T01:39:41.246Z,47.64
2018-12-03T01:40:41.724Z,47.62
2018-12-03T01:41:41.135Z,47.66
2018-12-03T01:42:41.331Z,47.58
2018-12-03T01:43:41.170Z,47.58
2018-12-03T01:44:41.280Z,47.62
2018-12-03T01:45:41.632Z,47.58
2018-12-03T01:46:41.395Z,47.59
2018-12-03T01:47:41.404Z,47.62
2018-12-03T01:48:41.373Z,47.67
2018-12-03T01:49:41.778Z,47.61
2018-12-03T01:50:41.505Z,47.63
2018-12-03T01:51:41.559Z,47.67
2018-12-03T01:52:41.678Z,47.62
2018-12-03T01:53:41.437Z,47.63
2018-12-03T01:54:41.211Z,47.63
2018-12-03T01:55:41.464Z,47.6
2018-12-03T01:56:41.464Z,47.64
2018-12-03T01:57:41.679Z,47.65
2018-12-03T01:58:41.387Z,47.63
2018-12-03T01:59:42.141Z,47.66
2018-12-03T02:00:41.847Z,47.66
2018-12-03T02:01:41.291Z,47.69
2018-12-03T02:02:42.184Z,47.68
2018-12-03T02:03:41.770Z,47.64
2018-12-03T02:04:41.589Z,47.65
2018-12-03T02:05:41.394Z,47.66
2018-12-03T02:06:41.341Z,47.65
2018-12-03T02:07:41.536Z,47.65
2018-12-03T02:08:41.315Z,47.65
2018-12-03T02:09:41.647Z,47.66
2018-12-03T02:10:41.672Z,47.7
2018-12-03T02:11:41.567Z,47.71
2018-12-03T02:12:41.481Z,47.68
2018-12-03T02:13:41.261Z,47.69
2018-12-03T02:14:41.617Z,47.67
2018-12-03T02:15:41.458Z,47.71
2018-12-03T02:16:41.339Z,47.67
2018-12-03T02:17:41.128Z,47.69
2018-12-03T02:18:41.535Z,47.66
2018-12-03T02:19:41.363Z,47.69
2018-12-03T02:20:41.223Z,47.7
2018-12-03T02:21:41.354Z,47.67
2018-12-03T02:22:41.172Z,47.69
2018-12-03T02:23:41.296Z,47.69
2018-12-03T02:24:41.127Z,47.69
2018-12-03T02:25:41.347Z,47.68
2018-12-03T02:26:41.367Z,47.69
2018-12-03T02:27:41.263Z,47.67
2018-12-03T02:28:41.696Z,47.66
2018-12-03T02:29:41.152Z,47.69
2018-12-03T02:30:41.315Z,47.65
2018-12-03T02:31:41.522Z,47.68
2018-12-03T02:32:41.290Z,47.71
2018-12-03T02:33:41.209Z,47.69
2018-12-03T02:34:41.348Z,47.67
2018-12-03T02:35:41.159Z,47.69
2018-12-03T02:36:41.246Z,47.73
2018-12-03T02:37:41.731Z,47.71
2018-12-03T02:38:41.193Z,47.69
2018-12-03T02:39:41.673Z,47.67
2018-12-03T02:40:41.218Z,47.69
2018-12-03T02:41:41.260Z,47.71
2018-12-03T02:42:41.249Z,47.68
2018-12-03T02:43:41.173Z,47.66
2018-12-03T02:44:42.115Z,47.7
2018-12-03T02:45:41.206Z,47.7
2018-12-03T02:46:41.639Z,47.73
2018-12-03T02:47:41.655Z,47.67
2018-12-03T02:48:41.830Z,47.65
2018-12-03T02:49:41.453Z,47.69
2018-12-03T02:50:41.380Z,47.69
2018-12-03T02:51:41.129Z,47.66
2018-12-03T02:52:41.319Z,47.66
2018-12-03T02:53:41.302Z,47.67
2018-12-03T02:54:41.110Z,47.65
2018-12-03T02:55:41.323Z,47.65
2018-12-03T02:56:41.184Z,47.65
2018-12-03T02:57:41.340Z,47.68
2018-12-03T02:58:41.174Z,47.66
2018-12-03T02:59:41.280Z,47.69
2018-12-03T03:00:41.297Z,47.69
2018-12-03T03:01:41.195Z,47.71
2018-12-03T03:02:41.331Z,47.69
2018-12-03T03:03:41.535Z,47.71
2018-12-03T03:04:41.326Z,47.69
2018-12-03T03:05:41.224Z,47.65
2018-12-03T03:06:41.305Z,47.71
2018-12-03T03:07:41.350Z,47.64
2018-12-03T03:08:41.120Z,47.7
2018-12-03T03:09:41.352Z,47.65
2018-12-03T03:10:41.271Z,47.65
2018-12-03T03:11:42.603Z,47.7
2018-12-03T03:12:41.274Z,47.7
2018-12-03T03:13:41.250Z,47.68
2018-12-03T03:14:41.336Z,47.66
2018-12-03T03:15:41.288Z,47.69
2018-12-03T03:16:41.604Z,47.69
2018-12-03T03:17:41.988Z,47.74
2018-12-03T03:18:41.377Z,47.68
2018-12-03T03:19:41.295Z,47.67
2018-12-03T03:20:41.558Z,47.69
2018-12-03T03:21:41.236Z,47.71
2018-12-03T03:22:41.143Z,47.7
2018-12-03T03:23:41.723Z,47.69
2018-12-03T03:24:41.192Z,47.68
2018-12-03T03:25:41.426Z,47.71
2018-12-03T03:26:41.396Z,47.71
2018-12-03T03:27:41.341Z,47.71
2018-12-03T03:28:41.176Z,47.69
2018-12-03T03:29:41.637Z,47.71
2018-12-03T03:30:41.719Z,47.71
2018-12-03T03:31:41.064Z,47.66
2018-12-03T03:32:41.769Z,47.71
2018-12-03T03:33:41.170Z,47.7
2018-12-03T03:34:41.218Z,47.69
2018-12-03T03:35:41.537Z,47.7
2018-12-03T03:36:41.554Z,47.74
2018-12-03T03:37:41.686Z,47.69
2018-12-03T03:38:41.666Z,47.71
2018-12-03T03:39:41.317Z,47.67
2018-12-03T03:40:41.398Z,47.7
2018-12-03T03:41:41.305Z,47.71
2018-12-03T03:42:41.114Z,47.7
2018-12-03T03:43:41.194Z,47.68
2018-12-03T03:44:41.292Z,47.71
2018-12-03T03:45:41.310Z,47.68
2018-12-03T03:46:41.270Z,47.7
2018-12-03T03:47:41.160Z,47.71
2018-12-03T03:48:41.325Z,47.69
2018-12-03T03:49:41.991Z,47.75
2018-12-03T03:50:41.671Z,47.68
2018-12-03T03:51:41.099Z,47.72
2018-12-03T03:52:41.568Z,47.74
2018-12-03T03:53:41.353Z,47.72
2018-12-03T03:54:41.193Z,47.74
2018-12-03T03:55:41.398Z,47.68
2018-12-03T03:56:41.238Z,47.71
2018-12-03T03:57:41.251Z,47.75
2018-12-03T03:58:41.427Z,47.7
2018-12-03T03:59:41.300Z,47.72
2018-12-03T04:00:41.511Z,47.74
2018-12-03T04:01:41.626Z,47.71
2018-12-03T04:02:41.508Z,47.72
2018-12-03T04:03:41.878Z,47.7
2018-12-03T04:04:41.354Z,47.71
2018-12-03T04:05:41.468Z,47.69
2018-12-03T04:06:41.279Z,47.73
2018-12-03T04:07:41.113Z,47.72
2018-12-03T04:08:41.180Z,47.69
2018-12-03T04:09:41.076Z,47.74
2018-12-03T04:10:41.655Z,47.71
2018-12-03T04:11:41.283Z,47.75
2018-12-03T04:12:41.633Z,47.7
2018-12-03T04:13:41.296Z,47.74
2018-12-03T04:14:41.417Z,47.72
2018-12-03T04:15:41.365Z,47.74
2018-12-03T04:16:41.616Z,47.79
2018-12-03T04:17:41.288Z,47.73
2018-12-03T04:18:41.437Z,47.72
2018-12-03T04:19:41.565Z,47.73
2018-12-03T04:20:41.755Z,47.68
2018-12-03T04:21:41.431Z,47.69
2018-12-03T04:22:41.227Z,47.72
2018-12-03T04:23:41.221Z,47.75
2018-12-03T04:24:41.466Z,47.72
2018-12-03T04:25:41.318Z,47.72
2018-12-03T04:26:41.051Z,47.75
2018-12-03T04:27:41.460Z,47.74
2018-12-03T04:28:41.505Z,47.72
2018-12-03T04:29:41.694Z,47.69
2018-12-03T04:30:41.133Z,47.69
2018-12-03T04:31:41.239Z,47.7
2018-12-03T04:32:41.161Z,47.72
2018-12-03T04:33:41.535Z,47.74
2018-12-03T04:34:41.123Z,47.7
2018-12-03T04:35:41.043Z,47.75
2018-12-03T04:36:41.379Z,47.7
2018-12-03T04:37:41.154Z,47.71
2018-12-03T04:38:41.283Z,47.67
2018-12-03T04:39:41.225Z,47.71
2018-12-03T04:40:41.157Z,47.75
2018-12-03T04:41:41.063Z,47.7
2018-12-03T04:42:41.265Z,47.68
2018-12-03T04:43:41.266Z,47.72
2018-12-03T04:44:41.098Z,47.69
2018-12-03T04:45:41.778Z,47.72
2018-12-03T04:46:41.113Z,47.72
2018-12-03T04:47:41.224Z,47.67
2018-12-03T04:48:41.011Z,47.73
2018-12-03T04:49:41.553Z,47.7
2018-12-03T04:50:41.375Z,47.69
2018-12-03T04:51:41.211Z,47.72
2018-12-03T04:52:41.686Z,47.7
2018-12-03T04:53:42.182Z,47.7
2018-12-03T04:54:41.336Z,47.67
2018-12-03T04:55:41.255Z,47.68
2018-12-03T04:56:41.247Z,47.7
2018-12-03T04:57:41.816Z,47.68
2018-12-03T04:58:41.976Z,47.73
2018-12-03T04:59:41.658Z,47.69
2018-12-03T05:00:41.333Z,47.71
2018-12-03T05:01:41.494Z,47.7
2018-12-03T05:02:41.471Z,47.63
2018-12-03T05:03:41.664Z,47.65
2018-12-03T05:04:41.510Z,47.63
2018-12-03T05:05:41.504Z,47.65
2018-12-03T05:06:41.591Z,47.62
2018-12-03T05:07:41.288Z,47.66
2018-12-03T05:08:41.375Z,47.61
2018-12-03T05:09:41.164Z,47.65
2018-12-03T05:10:41.252Z,47.6
2018-12-03T05:11:41.171Z,47.61
2018-12-03T05:12:41.489Z,47.62
2018-12-03T05:13:41.306Z,47.58
2018-12-03T05:14:41.303Z,47.61
2018-12-03T05:15:41.446Z,47.54
2018-12-03T05:16:41.087Z,47.54
2018-12-03T05:17:41.263Z,47.55
2018-12-03T05:18:41.073Z,47.56
2018-12-03T05:19:41.230Z,47.55
2018-12-03T05:20:41.617Z,47.6
2018-12-03T05:21:41.379Z,47.55
2018-12-03T05:22:41.249Z,47.54
2018-12-03T05:23:41.098Z,47.5
2018-12-03T05:24:41.589Z,47.51
2018-12-03T05:25:42.108Z,47.48
2018-12-03T05:26:41.558Z,47.51
2018-12-03T05:27:41.323Z,47.53
2018-12-03T05:28:41.208Z,47.52
2018-12-03T05:29:41.249Z,47.48
2018-12-03T05:30:41.340Z,47.48
2018-12-03T05:31:41.984Z,47.47
2018-12-03T05:32:41.549Z,47.49
2018-12-03T05:33:41.334Z,47.49
2018-12-03T05:34:41.029Z,47.5
2018-12-03T05:35:41.215Z,47.47
2018-12-03T05:36:42.035Z,47.49
2018-12-03T05:37:41.707Z,47.51
2018-12-03T05:38:41.264Z,47.47
2018-12-03T05:39:41.082Z,47.48
2018-12-03T05:40:41.318Z,47.51
2018-12-03T05:41:41.199Z,47.49
2018-12-03T05:42:41.182Z,47.48
2018-12-03T05:43:41.382Z,47.47
2018-12-03T05:44:41.143Z,47.52
2018-12-03T05:45:41.663Z,47.49
2018-12-03T05:46:41.102Z,47.45
2018-12-03T05:47:41.188Z,47.49
2018-12-03T05:48:41.406Z,47.53
2018-12-03T05:49:41.620Z,47.5
2018-12-03T05:50:41.150Z,47.5
2018-12-03T05:51:41.628Z,47.5
2018-12-03T05:52:41.362Z,47.49
2018-12-03T05:53:41.323Z,47.5
2018-12-03T05:54:41.390Z,47.5
2018-12-03T05:55:41.173Z,47.45
2018-12-03T05:56:41.541Z,47.5
2018-12-03T05:57:41.439Z,47.49
2018-12-03T05:58:41.162Z,47.53
2018-12-03T05:59:41.133Z,47.53
2018-12-03T06:00:41.373Z,47.52
2018-12-03T06:01:41.091Z,47.49
2018-12-03T06:02:41.283Z,47.51
2018-12-03T06:03:41.238Z,47.52
2018-12-03T06:04:41.412Z,47.49
2018-12-03T06:05:41.213Z,47.55
2018-12-03T06:06:41.045Z,47.49
2018-12-03T06:07:41.155Z,47.51
2018-12-03T06:08:41.224Z,47.58
2018-12-03T06:09:41.110Z,47.5
2018-12-03T06:10:41.260Z,47.5
2018-12-03T06:11:41.605Z,47.52
2018-12-03T06:12:41.305Z,47.52
2018-12-03T06:13:41.193Z,47.51
2018-12-03T06:14:41.474Z,47.49
2018-12-03T06:15:41.142Z,47.53
2018-12-03T06:16:41.105Z,47.53
2018-12-03T06:17:41.029Z,47.55
2018-12-03T06:18:41.206Z,47.53
2018-12-03T06:19:41.349Z,47.54
2018-12-03T06:20:41.061Z,47.48
2018-12-03T06:21:41.307Z,47.57
2018-12-03T06:22:41.067Z,47.52
2018-12-03T06:23:41.132Z,47.52
2018-12-03T06:24:41.073Z,47.56
2018-12-03T06:25:41.024Z,47.55
2018-12-03T06:26:41.229Z,47.53
2018-12-03T06:27:41.124Z,47.5
2018-12-03T06:28:41.241Z,47.5
2018-12-03T06:29:41.835Z,47.49
2018-12-03T06:30:41.307Z,47.53
2018-12-03T06:31:41.028Z,47.49
2018-12-03T06:32:41.653Z,47.56
2018-12-03T06:33:41.362Z,47.49
2018-12-03T06:34:41.121Z,47.53
2018-12-03T06:35:41.276Z,47.49
2018-12-03T06:36:41.087Z,47.5
2018-12-03T06:37:41.275Z,47.53
2018-12-03T06:38:41.163Z,47.55
2018-12-03T06:39:41.191Z,47.54
2018-12-03T06:40:41.362Z,47.55
2018-12-03T06:41:41.581Z,47.52
2018-12-03T06:42:41.673Z,47.51
2018-12-03T06:43:41.823Z,47.51
2018-12-03T06:44:41.205Z,47.51
2018-12-03T06:45:41.183Z,47.5
2018-12-03T06:46:41.216Z,47.52
2018-12-03T06:47:41.021Z,47.51
2018-12-03T06:48:41.522Z,47.49
2018-12-03T06:49:41.356Z,47.52
2018-12-03T06:50:41.422Z,47.54
2018-12-03T06:51:41.530Z,47.54
2018-12-03T06:52:41.302Z,47.51
2018-12-03T06:53:41.680Z,47.5
2018-12-03T06:54:42.787Z,47.57
2018-12-03T06:55:41.236Z,47.5
2018-12-03T06:56:41.325Z,47.5
2018-12-03T06:57:41.474Z,47.5
2018-12-03T06:58:41.203Z,47.55
2018-12-03T06:59:41.125Z,47.54
2018-12-03T07:00:41.623Z,47.52
2018-12-03T07:01:41.393Z,47.51
2018-12-03T07:02:41.288Z,47.56
2018-12-03T07:03:41.748Z,47.5
2018-12-03T07:04:41.141Z,47.52
2018-12-03T07:05:41.205Z,47.56
2018-12-03T07:06:41.438Z,47.51
2018-12-03T07:07:41.423Z,47.56
2018-12-03T07:08:42.004Z,47.59
2018-12-03T07:09:41.141Z,47.56
2018-12-03T07:10:40.993Z,47.56
2018-12-03T07:11:41.241Z,47.55
2018-12-03T07:12:41.682Z,47.56
2018-12-03T07:13:41.380Z,47.55
2018-12-03T07:14:41.315Z,47.56
2018-12-03T07:15:41.224Z,47.6
2018-12-03T07:16:41.193Z,47.54
2018-12-03T07:17:41.070Z,47.56
2018-12-03T07:18:42.083Z,47.58
2018-12-03T07:19:41.059Z,47.55
2018-12-03T07:20:41.198Z,47.56
2018-12-03T07:21:41.869Z,47.53
2018-12-03T07:22:41.320Z,47.57
2018-12-03T07:23:41.635Z,47.54
2018-12-03T07:24:41.162Z,47.52
2018-12-03T07:25:41.231Z,47.52
2018-12-03T07:26:41.385Z,47.56
2018-12-03T07:27:41.166Z,47.54
2018-12-03T07:28:41.472Z,47.54
2018-12-03T07:29:41.138Z,47.56
2018-12-03T07:30:41.204Z,47.54
2018-12-03T07:31:41.496Z,47.56
2018-12-03T07:32:41.275Z,47.51
2018-12-03T07:33:41.697Z,47.52
2018-12-03T07:34:41.049Z,47.52
2018-12-03T07:35:41.260Z,47.54
2018-12-03T07:36:41.173Z,47.54
2018-12-03T07:37:41.679Z,47.54
2018-12-03T07:38:41.964Z,47.5
2018-12-03T07:39:41.173Z,47.56
2018-12-03T07:40:41.116Z,47.54
2018-12-03T07:41:41.131Z,47.56
2018-12-03T07:42:41.190Z,47.55
2018-12-03T07:43:41.122Z,47.53
2018-12-03T07:44:41.219Z,47.55
2018-12-03T07:45:41.084Z,47.56
2018-12-03T07:46:41.618Z,47.55
2018-12-03T07:47:41.497Z,47.54
2018-12-03T07:48:41.245Z,47.59
2018-12-03T07:49:40.944Z,47.54
2018-12-03T07:50:41.187Z,47.54
2018-12-03T07:51:41.022Z,47.55
2018-12-03T07:52:41.171Z,47.5
2018-12-03T07:53:41.240Z,47.53
2018-12-03T07:54:41.135Z,47.53
2018-12-03T07:55:41.244Z,47.58
2018-12-03T07:56:41.040Z,47.53
2018-12-03T07:57:41.164Z,47.54
2018-12-03T07:58:41.044Z,47.55
2018-12-03T07:59:41.067Z,47.55
2018-12-03T08:00:40.969Z,47.5
2018-12-03T08:01:41.135Z,47.54
2018-12-03T08:02:41.226Z,47.55
2018-12-03T08:03:41.106Z,47.54
2018-12-03T08:04:41.142Z,47.53
2018-12-03T08:05:41.101Z,47.55
2018-12-03T08:06:41.178Z,47.53
2018-12-03T08:07:41.460Z,47.5
2018-12-03T08:08:41.168Z,47.53
2018-12-03T08:09:40.968Z,47.56
2018-12-03T08:10:41.312Z,47.49
2018-12-03T08:11:41.204Z,47.49
2018-12-03T08:12:41.494Z,47.52
2018-12-03T08:13:41.094Z,47.51
2018-12-03T08:14:41.014Z,47.51
2018-12-03T08:15:41.325Z,47.52
2018-12-03T08:16:40.995Z,47.51
2018-12-03T08:17:41.101Z,47.5
2018-12-03T08:18:41.074Z,47.52
2018-12-03T08:19:41.108Z,47.51
2018-12-03T08:20:41.092Z,47.55
2018-12-03T08:21:41.011Z,47.5
2018-12-03T08:22:41.459Z,47.54
2018-12-03T08:23:41.270Z,47.46
2018-12-03T08:24:41.289Z,47.47
2018-12-03T08:25:41.612Z,47.48
2018-12-03T08:26:41.024Z,47.49
2018-12-03T08:27:40.947Z,47.49
2018-12-03T08:28:41.914Z,47.46
2018-12-03T08:29:41.594Z,47.48
2018-12-03T08:30:40.996Z,47.47
2018-12-03T08:31:41.441Z,47.51
2018-12-03T08:32:41.415Z,47.47
2018-12-03T08:33:41.320Z,47.48
2018-12-03T08:34:41.287Z,47.48
2018-12-03T08:35:41.380Z,47.54
2018-12-03T08:36:40.976Z,47.46
2018-12-03T08:37:41.071Z,47.47
2018-12-03T08:38:41.115Z,47.48
2018-12-03T08:39:41.001Z,47.49
2018-12-03T08:40:41.184Z,47.46
2018-12-03T08:41:41.083Z,47.45
2018-12-03T08:42:41.578Z,47.47
2018-12-03T08:43:41.233Z,47.5
2018-12-03T08:44:41.431Z,47.52
2018-12-03T08:45:41.022Z,47.49
2018-12-03T08:46:41.107Z,47.48
2018-12-03T08:47:41.159Z,47.47
2018-12-03T08:48:41.450Z,47.46
2018-12-03T08:49:41.343Z,47.46
2018-12-03T08:50:41.206Z,47.46
2018-12-03T08:51:41.575Z,47.49
2018-12-03T08:52:41.284Z,47.47
2018-12-03T08:53:41.203Z,47.42
2018-12-03T08:54:41.186Z,47.48
2018-12-03T08:55:41.059Z,47.43
2018-12-03T08:56:41.072Z,47.47
2018-12-03T08:57:41.319Z,47.46
2018-12-03T08:58:41.439Z,47.48
2018-12-03T08:59:41.617Z,47.48
2018-12-03T09:00:41.030Z,47.49
2018-12-03T09:01:41.448Z,47.46
2018-12-03T09:02:41.058Z,47.47
2018-12-03T09:03:41.572Z,47.51
2018-12-03T09:04:41.306Z,47.46
2018-12-03T09:05:41.268Z,47.44
2018-12-03T09:06:41.035Z,47.44
2018-12-03T09:07:41.780Z,47.47
2018-12-03T09:08:41.195Z,47.46
2018-12-03T09:09:41.192Z,47.45
2018-12-03T09:10:41.257Z,47.44
2018-12-03T09:11:41.156Z,47.44
2018-12-03T09:12:41.180Z,47.46
2018-12-03T09:13:41.905Z,47.49
2018-12-03T09:14:41.172Z,47.46
2018-12-03T09:15:41.699Z,47.45
2018-12-03T09:16:41.049Z,47.53
2018-12-03T09:17:41.675Z,47.47
2018-12-03T09:18:41.045Z,47.44
2018-12-03T09:19:41.227Z,47.47
2018-12-03T09:20:41.168Z,47.45
2018-12-03T09:21:41.103Z,47.46
2018-12-03T09:22:41.269Z,47.45
2018-12-03T09:23:41.134Z,47.46
2018-12-03T09:24:41.089Z,47.48
2018-12-03T09:25:41.293Z,47.47
2018-12-03T09:26:41.697Z,47.47
2018-12-03T09:27:41.204Z,47.46
2018-12-03T09:28:41.062Z,47.47
2018-12-03T09:29:41.622Z,47.46
2018-12-03T09:30:40.988Z,47.49
2018-12-03T09:31:41.113Z,47.48
2018-12-03T09:32:41.149Z,47.46
2018-12-03T09:33:41.142Z,47.46
2018-12-03T09:34:41.201Z,47.47
2018-12-03T09:35:41.076Z,47.46
2018-12-03T09:36:41.451Z,47.46
2018-12-03T09:37:41.082Z,47.5
2018-12-03T09:38:41.278Z,47.46
2018-12-03T09:39:41.322Z,47.44
2018-12-03T09:40:41.477Z,47.46
2018-12-03T09:41:40.980Z,47.47
2018-12-03T09:42:41.051Z,47.47
2018-12-03T09:43:41.208Z,47.62
2018-12-03T09:44:41.163Z,47.6
2018-12-03T09:45:41.567Z,47.79
2018-12-03T09:46:41.420Z,47.86
2018-12-03T09:47:41.478Z,47.97
2018-12-03T09:48:42.107Z,47.97
2018-12-03T09:49:41.199Z,48.1
2018-12-03T09:50:40.915Z,48.1
2018-12-03T09:51:41.697Z,48.11
2018-12-03T09:52:41.229Z,48.13
2018-12-03T09:53:41.846Z,48.09
2018-12-03T09:54:41.585Z,48.18
2018-12-03T09:55:41.096Z,48.1
2018-12-03T09:56:41.099Z,48.16
2018-12-03T09:57:41.058Z,48.15
2018-12-03T09:58:41.111Z,48.22
2018-12-03T09:59:41.332Z,48.18
2018-12-03T10:00:40.969Z,48.15
2018-12-03T10:01:41.195Z,48.18
2018-12-03T10:02:41.512Z,48.19
2018-12-03T10:03:41.085Z,48.19
2018-12-03T10:04:41.501Z,48.23
2018-12-03T10:05:41.807Z,48.21
2018-12-03T10:06:41.347Z,48.2
2018-12-03T10:07:40.888Z,48.15
2018-12-03T10:08:41.468Z,48.25
2018-12-03T10:09:41.461Z,48.21
2018-12-03T10:10:41.421Z,48.18
2018-12-03T10:11:40.952Z,48.19
2018-12-03T10:12:41.388Z,48.21
2018-12-03T10:13:41.226Z,48.19
2018-12-03T10:14:41.003Z,48.15
2018-12-03T10:15:41.306Z,48.21
2018-12-03T10:16:41.010Z,48.2
2018-12-03T10:17:41.228Z,48.19
2018-12-03T10:18:40.983Z,48.26
2018-12-03T10:19:41.691Z,48.15
2018-12-03T10:20:42.415Z,48.19
2018-12-03T10:21:41.134Z,48.19
2018-12-03T10:22:41.234Z,48.2
2018-12-03T10:23:41.274Z,48.2
2018-12-03T10:24:41.095Z,48.25
2018-12-03T10:25:41.275Z,48.27
2018-12-03T10:26:41.067Z,48.15
2018-12-03T10:27:41.102Z,48.18
2018-12-03T10:28:40.982Z,48.19
2018-12-03T10:29:41.454Z,48.15
2018-12-03T10:30:41.181Z,48.17
2018-12-03T10:31:41.192Z,48.18
2018-12-03T10:32:41.159Z,48.21
2018-12-03T10:33:41.170Z,48.17
2018-12-03T10:34:41.118Z,48.09
2018-12-03T10:35:41.309Z,48.22
2018-12-03T10:36:41.308Z,48.33
2018-12-03T10:37:41.212Z,48.29
2018-12-03T10:38:41.192Z,48.22
2018-12-03T10:39:41.118Z,48.19
2018-12-03T10:40:41.117Z,48.21
2018-12-03T10:41:41.127Z,48.11
2018-12-03T10:42:40.974Z,48.09
2018-12-03T10:43:41.166Z,48.13
2018-12-03T10:44:41.052Z,48.12
2018-12-03T10:45:41.454Z,48.08
2018-12-03T10:46:41.365Z,48.03
2018-12-03T10:47:41.285Z,48.14
2018-12-03T10:48:41.027Z,48.11
2018-12-03T10:49:41.146Z,48.08
2018-12-03T10:50:41.154Z,48.07
2018-12-03T10:51:41.333Z,48.09
2018-12-03T10:52:40.978Z,48.06
2018-12-03T10:53:41.220Z,48.03
2018-12-03T10:54:41.181Z,48.04
2018-12-03T10:55:41.161Z,47.98
2018-12-03T10:56:41.037Z,48.04
2018-12-03T10:57:41.444Z,47.95
2018-12-03T10:58:41.029Z,48.01
2018-12-03T10:59:41.573Z,47.98
2018-12-03T11:00:40.961Z,48.01
2018-12-03T11:01:41.172Z,47.95
2018-12-03T11:02:40.920Z,47.93
2018-12-03T11:03:41.022Z,47.95
2018-12-03T11:04:41.119Z,47.94
2018-12-03T11:05:41.022Z,47.96
2018-12-03T11:06:41.297Z,47.92
2018-12-03T11:07:41.029Z,47.94
2018-12-03T11:08:41.177Z,47.9
2018-12-03T11:09:40.997Z,47.92
2018-12-03T11:10:40.892Z,47.91
2018-12-03T11:11:41.011Z,47.91
2018-12-03T11:12:41.037Z,47.91
2018-12-03T11:13:41.093Z,47.92
2018-12-03T11:14:41.042Z,47.9
2018-12-03T11:15:41.105Z,47.88
2018-12-03T11:16:40.910Z,47.89
2018-12-03T11:17:41.153Z,47.87
2018-12-03T11:18:40.975Z,47.92
2018-12-03T11:19:40.858Z,47.87
2018-12-03T11:20:41.086Z,47.87
2018-12-03T11:21:41.027Z,47.9
2018-12-03T11:22:41.106Z,47.85
2018-12-03T11:23:41.237Z,47.87
2018-12-03T11:24:41.363Z,47.85
2018-12-03T11:25:41.171Z,47.89
2018-12-03T11:26:41.099Z,47.87
2018-12-03T11:27:41.554Z,47.82
2018-12-03T11:28:41.145Z,47.92
2018-12-03T11:29:41.101Z,47.89
2018-12-03T11:30:41.074Z,47.87
2018-12-03T11:31:41.068Z,47.91
2018-12-03T11:32:41.040Z,47.87
2018-12-03T11:33:41.016Z,47.92
2018-12-03T11:34:41.057Z,47.9
2018-12-03T11:35:41.887Z,47.93
2018-12-03T11:36:41.102Z,47.94
2018-12-03T11:37:41.079Z,47.9
2018-12-03T11:38:41.101Z,47.91
2018-12-03T11:39:41.014Z,47.89
2018-12-03T11:40:41.094Z,47.87
2018-12-03T11:41:41.076Z,47.87
2018-12-03T11:42:41.244Z,47.88
2018-12-03T11:43:41.206Z,47.87
2018-12-03T11:44:41.140Z,47.9
2018-12-03T11:45:41.438Z,47.84
2018-12-03T11:46:41.320Z,47.89
2018-12-03T11:47:41.140Z,47.88
2018-12-03T11:48:41.311Z,47.84
2018-12-03T11:49:41.199Z,47.89
2018-12-03T11:50:41.121Z,47.89
2018-12-03T11:51:41.424Z,47.87
2018-12-03T11:52:41.150Z,47.88
2018-12-03T11:53:41.178Z,47.85
2018-12-03T11:54:40.978Z,47.89
2018-12-03T11:55:40.948Z,47.84
2018-12-03T11:56:41.287Z,47.88
2018-12-03T11:57:41.121Z,47.88
2018-12-03T11:58:40.985Z,47.91
2018-12-03T11:59:41.140Z,47.84
2018-12-03T12:00:41.188Z,47.84
2018-12-03T12:01:41.422Z,47.83
2018-12-03T12:02:41.087Z,47.87
2018-12-03T12:03:43.031Z,47.84
2018-12-03T12:04:40.785Z,47.84
2018-12-03T12:05:40.967Z,47.86
2018-12-03T12:06:40.998Z,47.84
2018-12-03T12:07:42.597Z,47.84
2018-12-03T12:08:41.036Z,47.82
2018-12-03T12:09:41.240Z,47.83
2018-12-03T12:10:41.285Z,47.82
2018-12-03T12:11:41.705Z,47.82
2018-12-03T12:12:41.365Z,47.84
2018-12-03T12:13:41.023Z,47.84
2018-12-03T12:14:41.097Z,47.81
2018-12-03T12:15:41.498Z,47.84
2018-12-03T12:16:41.003Z,47.82
2018-12-03T12:17:41.239Z,47.84
2018-12-03T12:18:40.994Z,47.84
2018-12-03T12:19:41.065Z,47.82
2018-12-03T12:20:42.761Z,47.81
2018-12-03T12:21:41.031Z,47.78
2018-12-03T12:22:40.889Z,47.83
2018-12-03T12:23:41.107Z,47.82
2018-12-03T12:24:41.175Z,47.81
2018-12-03T12:25:40.949Z,47.82
2018-12-03T12:26:41.509Z,47.81
2018-12-03T12:27:41.303Z,47.81
2018-12-03T12:28:41.394Z,47.82
2018-12-03T12:29:41.316Z,47.8
2018-12-03T12:30:41.059Z,47.84
2018-12-03T12:31:40.857Z,47.8
2018-12-03T12:32:40.991Z,47.83
2018-12-03T12:33:41.131Z,47.85
2018-12-03T12:34:40.962Z,47.81
2018-12-03T12:35:41.070Z,47.84
2018-12-03T12:36:41.061Z,47.79
2018-12-03T12:37:40.897Z,47.76
2018-12-03T12:38:41.078Z,47.8
2018-12-03T12:39:40.966Z,47.82
2018-12-03T12:40:41.045Z,47.82
2018-12-03T12:41:40.930Z,47.81
2018-12-03T12:42:41.034Z,47.8
2018-12-03T12:43:41.165Z,47.82
2018-12-03T12:44:40.934Z,47.81
2018-12-03T12:45:41.162Z,47.83
2018-12-03T12:46:40.968Z,47.81
2018-12-03T12:47:41.400Z,47.79
2018-12-03T12:48:40.911Z,47.8
2018-12-03T12:49:40.837Z,47.77
2018-12-03T12:50:40.991Z,47.8
2018-12-03T12:51:40.889Z,47.8
2018-12-03T12:52:41.110Z,47.78
2018-12-03T12:53:41.300Z,47.92
2018-12-03T12:54:41.026Z,48.08
2018-12-03T12:55:40.893Z,48.2